Time;durP1;ratioP1;P1;durP2;ratioP2;P2;SDS_P1;SDS_P2;PMS_P1;PMS_P2;Temp;Humidity;BMP_temperature;BMP_pressure;BME280_temperature;BME280_humidity;BME280_pressure;Samples;Min_cycle;Max_cycle;Signal;HPM_P1;HPM_P2
2022/04/27 00:00:35;;;;;;;4.93;4.43;;;;;;;15.96;57.62;94458.09;5080202;28;20440;-75
2022/04/27 00:03:02;;;;;;;6.13;4.90;;;;;;;15.57;58.68;94450.63;5058234;28;20281;-76
2022/04/27 00:05:28;;;;;;;5.13;4.73;;;;;;;15.54;58.32;94450.31;5079439;28;20451;-76
2022/04/27 00:07:54;;;;;;;4.57;4.27;;;;;;;15.30;59.54;94457.41;5077461;28;20979;-76
2022/04/27 00:10:19;;;;;;;4.93;4.63;;;;;;;15.73;58.69;94453.63;5064283;28;20421;-76
2022/04/27 00:12:45;;;;;;;4.57;4.27;;;;;;;15.98;57.46;94453.38;5071298;28;20173;-76
2022/04/27 00:15:12;;;;;;;5.20;4.70;;;;;;;15.82;58.01;94457.50;5058533;28;20169;-76
2022/04/27 00:17:37;;;;;;;5.00;4.60;;;;;;;15.83;57.97;94455.69;5085138;28;20438;-76
2022/04/27 00:20:04;;;;;;;5.53;4.87;;;;;;;15.81;58.41;94455.91;5070932;28;20421;-76
2022/04/27 00:22:29;;;;;;;5.13;4.57;;;;;;;15.41;59.39;94459.25;5077155;28;20179;-76
2022/04/27 00:25:00;;;;;;;6.17;4.70;;;;;;;15.21;60.83;94462.19;5061371;28;20443;-76
2022/04/27 00:27:29;;;;;;;5.90;5.37;;;;;;;15.17;60.70;94461.84;5076352;28;20522;-76
2022/04/27 00:29:56;;;;;;;6.13;5.63;;;;;;;15.47;59.85;94460.16;5066245;28;20445;-76
2022/04/27 00:32:22;;;;;;;5.70;4.60;;;;;;;15.66;59.10;94448.44;5066823;28;20412;-76
2022/04/27 00:34:47;;;;;;;4.70;4.30;;;;;;;15.56;58.85;94469.34;5069862;28;20492;-76
2022/04/27 00:37:13;;;;;;;8.70;5.27;;;;;;;15.59;58.70;94461.78;5071680;28;20174;-76
2022/04/27 00:39:38;;;;;;;5.80;5.30;;;;;;;15.31;59.25;94470.34;5081783;28;20193;-76
2022/04/27 00:42:24;;;;;;;4.90;4.57;;;;;;;15.45;59.15;94463.00;5057719;28;20257;-76
2022/04/27 00:44:50;;;;;;;5.00;4.70;;;;;;;15.27;59.66;94463.09;5067207;28;20269;-76
2022/04/27 00:47:17;;;;;;;7.53;5.00;;;;;;;15.32;59.09;94471.16;5077183;28;20795;-76
2022/04/27 00:49:46;;;;;;;7.23;5.20;;;;;;;15.43;59.29;94471.16;5083604;28;20264;-76
2022/04/27 00:52:13;;;;;;;6.37;5.10;;;;;;;15.58;58.86;94472.53;5050879;28;20547;-76
2022/04/27 00:54:44;;;;;;;5.47;4.93;;;;;;;15.55;58.12;94468.50;5083645;28;21043;-76
2022/04/27 00:57:10;;;;;;;6.50;5.00;;;;;;;15.54;58.44;94472.19;5084411;28;20423;-76
2022/04/27 00:59:36;;;;;;;6.03;5.30;;;;;;;15.49;57.98;94466.00;5074665;28;20446;-76
2022/04/27 01:02:06;;;;;;;5.13;4.77;;;;;;;15.58;58.34;94462.78;5070149;28;20498;-76
2022/04/27 01:04:36;;;;;;;5.07;4.73;;;;;;;15.54;58.13;94474.84;5074561;28;20508;-76
2022/04/27 01:07:03;;;;;;;4.67;4.37;;;;;;;15.57;57.11;94470.94;5079385;28;20466;-76
2022/04/27 01:09:30;;;;;;;5.33;4.10;;;;;;;15.49;57.58;94468.63;5081377;28;20463;-76
2022/04/27 01:11:56;;;;;;;8.10;5.17;;;;;;;15.43;57.39;94468.50;5075779;28;20437;-77
2022/04/27 01:14:22;;;;;;;5.73;5.17;;;;;;;15.63;56.99;94464.72;5073848;28;20456;-76
2022/04/27 01:16:55;;;;;;;5.47;4.97;;;;;;;15.77;56.72;94455.59;5068040;28;20435;-77
2022/04/27 01:19:23;;;;;;;5.47;4.90;;;;;;;15.54;57.51;94466.91;5067700;28;20461;-76
2022/04/27 01:21:53;;;;;;;7.50;4.70;;;;;;;15.77;56.51;94463.50;5054278;28;20523;-76
2022/04/27 01:24:20;;;;;;;4.53;4.13;;;;;;;15.24;57.67;94464.38;5081662;28;20452;-76
2022/04/27 01:26:48;;;;;;;5.13;4.60;;;;;;;15.37;57.83;94461.53;5071121;28;20462;-76
2022/04/27 01:29:18;;;;;;;6.20;4.83;;;;;;;15.27;57.72;94461.28;5074838;28;20456;-76
2022/04/27 01:31:44;;;;;;;8.93;5.03;;;;;;;15.18;57.97;94460.03;5082421;28;20412;-76
2022/04/27 01:34:10;;;;;;;6.10;5.10;;;;;;;15.19;57.73;94462.41;5075065;28;20443;-76
2022/04/27 01:36:36;;;;;;;6.17;5.50;;;;;;;15.01;58.01;94465.94;5077678;28;20420;-76
2022/04/27 01:39:01;;;;;;;5.63;5.10;;;;;;;15.00;58.12;94461.69;5058113;28;20467;-76
2022/04/27 01:41:27;;;;;;;5.73;5.23;;;;;;;15.22;57.93;94463.81;5096893;28;20239;-77
2022/04/27 01:43:52;;;;;;;5.83;5.33;;;;;;;15.31;57.21;94459.81;5087298;28;20185;-76
2022/04/27 01:46:18;;;;;;;5.60;5.00;;;;;;;15.35;57.58;94462.78;5084169;28;20194;-76
2022/04/27 01:48:43;;;;;;;6.90;5.80;;;;;;;15.37;57.63;94458.88;5075231;28;20204;-76
2022/04/27 01:51:09;;;;;;;5.47;4.97;;;;;;;15.46;57.41;94456.72;5071316;28;20186;-76
2022/04/27 01:56:19;;;;;;;4.80;4.43;;;;;;;15.46;57.67;94461.16;5049133;28;20693;-76
2022/04/27 01:58:45;;;;;;;8.43;5.27;;;;;;;15.17;58.47;94456.56;5056313;28;20442;-77
2022/04/27 02:01:11;;;;;;;6.43;5.27;;;;;;;15.10;58.11;94455.88;5051348;28;20324;-77
2022/04/27 02:03:38;;;;;;;7.57;5.30;;;;;;;15.08;59.05;94460.59;5067148;28;20327;-76
2022/04/27 02:06:03;;;;;;;6.23;5.73;;;;;;;14.80;59.29;94450.66;5042983;28;21090;-76
2022/04/27 02:08:29;;;;;;;8.30;5.77;;;;;;;14.68;59.93;94447.97;5047329;28;20496;-76
2022/04/27 02:10:55;;;;;;;6.60;6.07;;;;;;;14.78;59.31;94455.34;5049795;28;20179;-76
2022/04/27 02:13:20;;;;;;;8.20;5.67;;;;;;;14.89;59.52;94446.69;5060198;28;20461;-76
2022/04/27 02:15:46;;;;;;;7.17;6.47;;;;;;;14.90;58.96;94445.63;5064794;28;20230;-76
2022/04/27 02:18:11;;;;;;;6.87;5.80;;;;;;;15.10;58.69;94455.88;5063122;28;20250;-76
2022/04/27 02:20:37;;;;;;;5.87;5.37;;;;;;;15.02;58.85;94454.38;5066919;28;20201;-76
2022/04/27 02:23:02;;;;;;;6.93;6.17;;;;;;;15.11;58.67;94443.50;5066646;28;20183;-75
2022/04/27 02:25:29;;;;;;;6.10;5.60;;;;;;;15.02;59.12;94453.56;5048702;28;20242;-76
2022/04/27 02:27:55;;;;;;;8.60;6.07;;;;;;;15.11;58.50;94461.94;5056496;28;20231;-75
2022/04/27 02:30:21;;;;;;;5.57;4.97;;;;;;;14.94;58.80;94452.06;5029131;28;20453;-76
2022/04/27 02:32:47;;;;;;;7.17;5.50;;;;;;;14.88;59.51;94450.34;5064471;28;20427;-75
2022/04/27 02:35:14;;;;;;;6.77;6.07;;;;;;;14.91;59.69;94457.78;5063166;28;20414;-76
2022/04/27 02:37:39;;;;;;;7.47;5.80;;;;;;;14.95;58.92;94463.41;5035048;28;20436;-75
2022/04/27 02:40:06;;;;;;;7.13;5.30;;;;;;;14.52;60.90;94459.13;5048354;28;20413;-76
2022/04/27 02:42:32;;;;;;;6.53;5.93;;;;;;;14.72;59.67;94459.69;5066489;28;20409;-76
2022/04/27 02:44:58;;;;;;;5.67;4.83;;;;;;;14.75;59.77;94461.06;5057622;28;20479;-76
2022/04/27 02:47:23;;;;;;;5.87;5.37;;;;;;;14.57;60.75;94461.91;5060141;28;20460;-76
2022/04/27 02:52:33;;;;;;;11.00;5.90;;;;;;;14.39;60.84;94460.91;5049725;28;20241;-75
2022/04/27 02:54:58;;;;;;;6.47;5.50;;;;;;;14.62;60.43;94464.69;5065837;28;20475;-76
2022/04/27 02:57:24;;;;;;;6.13;5.67;;;;;;;14.54;60.49;94457.88;5081837;28;20174;-76
2022/04/27 02:59:49;;;;;;;7.07;5.70;;;;;;;14.59;60.81;94460.66;5078226;28;20208;-76
2022/04/27 03:02:15;;;;;;;6.53;5.33;;;;;;;14.63;60.48;94456.56;5079357;28;20169;-76
2022/04/27 03:04:41;;;;;;;6.20;5.60;;;;;;;14.68;61.04;94460.34;5072884;28;20435;-76
2022/04/27 03:07:07;;;;;;;7.10;6.50;;;;;;;14.38;61.34;94458.47;5084756;28;20194;-76
2022/04/27 03:09:33;;;;;;;10.70;5.40;;;;;;;14.40;61.22;94461.72;5085472;28;20185;-76
2022/04/27 03:11:59;;;;;;;6.43;5.27;;;;;;;14.54;61.59;94462.34;5072263;28;20417;-75
2022/04/27 03:14:24;;;;;;;6.63;5.90;;;;;;;14.63;61.13;94455.75;5070504;28;20431;-75
2022/04/27 03:16:52;;;;;;;6.47;5.87;;;;;;;14.58;60.57;94458.25;5085497;28;20221;-76
2022/04/27 03:19:18;;;;;;;6.53;5.90;;;;;;;14.69;61.19;94465.41;5072955;28;20173;-76
2022/04/27 03:21:44;;;;;;;9.17;5.83;;;;;;;14.55;61.23;94464.75;5079544;28;21001;-76
2022/04/27 03:24:09;;;;;;;6.07;5.07;;;;;;;14.74;60.74;94467.34;5071702;28;20179;-76
2022/04/27 03:26:35;;;;;;;8.80;6.20;;;;;;;14.63;60.99;94469.72;5085274;28;20272;-76
2022/04/27 03:29:00;;;;;;;6.73;6.23;;;;;;;14.50;61.94;94469.09;5076487;28;20186;-76
2022/04/27 03:31:26;;;;;;;6.53;5.50;;;;;;;14.49;60.83;94478.78;5067514;28;20170;-75
2022/04/27 03:33:52;;;;;;;6.13;5.57;;;;;;;13.91;63.71;94479.31;5083035;28;20922;-76
2022/04/27 03:36:17;;;;;;;6.53;5.90;;;;;;;14.36;61.79;94486.84;5077748;28;20174;-76
2022/04/27 03:38:43;;;;;;;8.20;6.37;;;;;;;14.41;62.12;94481.75;5081795;28;20177;-76
2022/04/27 03:41:09;;;;;;;8.70;6.10;;;;;;;14.35;62.45;94485.25;5076460;28;20174;-77
2022/04/27 03:43:36;;;;;;;6.33;5.90;;;;;;;14.42;62.34;94491.25;5065810;28;20290;-76
2022/04/27 03:46:02;;;;;;;7.03;6.33;;;;;;;14.59;61.27;94487.00;5080511;28;20444;-75
2022/04/27 03:48:27;;;;;;;9.57;6.00;;;;;;;14.67;61.70;94493.00;5089852;28;20439;-77
2022/04/27 03:50:53;;;;;;;7.70;6.97;;;;;;;14.50;61.66;94490.16;5065845;28;20472;-76
2022/04/27 03:53:19;;;;;;;8.30;7.60;;;;;;;14.61;60.99;94500.75;5064974;28;20191;-75
2022/04/27 03:55:44;;;;;;;8.50;6.70;;;;;;;14.81;60.78;94495.19;5084549;28;20270;-76
2022/04/27 03:58:10;;;;;;;9.90;8.23;;;;;;;14.87;60.08;94498.78;5063540;28;20178;-76
2022/04/27 04:00:36;;;;;;;8.10;7.33;;;;;;;14.82;60.56;94503.94;5085028;28;20253;-76
2022/04/27 04:03:02;;;;;;;13.90;7.37;;;;;;;14.70;60.54;94503.06;5085412;28;20442;-76
2022/04/27 04:05:29;;;;;;;10.07;7.67;;;;;;;14.89;60.56;94511.72;5066014;28;20232;-76
2022/04/27 04:07:55;;;;;;;8.00;7.27;;;;;;;14.89;60.41;94512.56;5075747;28;20539;-76
2022/04/27 04:10:20;;;;;;;10.87;8.77;;;;;;;14.91;60.01;94505.22;5066408;28;20815;-76
2022/04/27 04:12:46;;;;;;;7.60;6.77;;;;;;;15.07;59.78;94516.94;5074858;28;20458;-76
2022/04/27 04:15:13;;;;;;;9.47;6.97;;;;;;;15.18;59.55;94516.16;5073185;28;20192;-76
2022/04/27 04:17:44;;;;;;;8.77;8.00;;;;;;;15.02;59.49;94522.06;5064620;28;20263;-76
2022/04/27 04:20:14;;;;;;;8.20;7.50;;;;;;;15.28;59.46;94526.16;5076788;28;20480;-75
2022/04/27 04:22:43;;;;;;;10.20;7.90;;;;;;;15.48;59.11;94525.88;5072724;28;20424;-76
2022/04/27 04:30:38;;;;;;;14.60;7.97;;;;;;;15.65;58.95;94525.16;5083424;28;20407;-77
2022/04/27 04:33:03;;;;;;;7.70;7.10;;;;;;;15.62;58.47;94527.25;5079373;28;20432;-76
2022/04/27 04:35:29;;;;;;;12.73;7.73;;;;;;;15.87;58.38;94528.88;5072389;28;20174;-76
2022/04/27 04:37:54;;;;;;;8.60;7.70;;;;;;;15.92;57.88;94536.13;5076698;28;20181;-77
2022/04/27 04:40:20;;;;;;;10.20;7.97;;;;;;;16.02;57.85;94531.06;5065989;28;20189;-76
2022/04/27 04:42:46;;;;;;;8.13;6.63;;;;;;;16.08;57.82;94529.34;5076494;28;20173;-77
2022/04/27 04:45:11;;;;;;;9.90;6.90;;;;;;;16.12;57.51;94533.13;5066367;28;20445;-77
2022/04/27 04:47:37;;;;;;;8.10;7.20;;;;;;;16.22;57.31;94540.44;5064126;28;20994;-76
2022/04/27 04:50:03;;;;;;;11.60;7.90;;;;;;;16.15;57.70;94538.75;5077407;28;20182;-77
2022/04/27 04:52:28;;;;;;;9.20;7.10;;;;;;;16.48;56.78;94537.28;5084065;28;20192;-77
2022/04/27 04:54:53;;;;;;;15.20;7.40;;;;;;;16.46;57.24;94542.00;5064041;28;20240;-77
2022/04/27 04:57:19;;;;;;;8.93;8.03;;;;;;;15.67;60.02;94550.31;5068606;28;20603;-77
2022/04/27 04:59:44;;;;;;;12.00;8.00;;;;;;;15.85;59.67;94551.25;5070213;28;20187;-77
2022/04/27 05:02:19;;;;;;;8.17;7.47;;;;;;;15.97;59.10;94550.25;5077090;28;20181;-76
2022/04/27 05:04:45;;;;;;;8.20;7.40;;;;;;;16.11;59.45;94545.53;5083225;28;20179;-76
2022/04/27 05:07:11;;;;;;;10.20;7.97;;;;;;;16.04;59.87;94555.38;5075029;28;20479;-76
2022/04/27 05:09:37;;;;;;;8.33;7.40;;;;;;;16.39;58.71;94554.56;5082740;28;20455;-77
2022/04/27 05:12:02;;;;;;;9.30;7.57;;;;;;;16.69;57.72;94554.34;5083496;28;20194;-76
2022/04/27 05:14:28;;;;;;;8.93;7.30;;;;;;;16.77;57.04;94556.63;5080055;28;20182;-77
2022/04/27 05:16:53;;;;;;;9.00;7.83;;;;;;;16.92;56.97;94556.16;5074751;28;20171;-76
2022/04/27 05:19:19;;;;;;;8.83;8.03;;;;;;;16.86;57.35;94553.66;5077755;28;20190;-77
2022/04/27 05:21:45;;;;;;;14.20;8.37;;;;;;;16.96;56.90;94551.22;5063967;28;20171;-76
2022/04/27 05:24:11;;;;;;;7.87;7.20;;;;;;;16.93;56.89;94556.97;5063861;28;20207;-76
2022/04/27 05:26:37;;;;;;;8.23;7.57;;;;;;;16.80;57.41;94550.06;5070239;28;20518;-77
2022/04/27 05:31:55;;;;;;;10.00;9.17;;;;;;;16.93;57.25;94541.88;5076520;28;20264;-77
2022/04/27 05:34:30;;;;;;;9.37;8.30;;;;;;;17.59;55.62;94549.38;5092602;28;20457;-76
2022/04/27 05:37:01;;;;;;;12.43;8.10;;;;;;;17.91;54.99;94541.69;5087270;28;20407;-76
2022/04/27 05:39:26;;;;;;;11.10;8.93;;;;;;;18.28;53.91;94556.22;5070855;28;20416;-76
2022/04/27 05:41:53;;;;;;;11.50;7.93;;;;;;;18.31;53.75;94550.47;5079996;28;20430;-76
2022/04/27 05:44:23;;;;;;;9.67;8.13;;;;;;;18.27;53.62;94550.16;5086741;28;20245;-78
2022/04/27 05:46:50;;;;;;;9.47;7.93;;;;;;;18.45;52.99;94559.63;5077841;28;20491;-77
2022/04/27 05:49:15;;;;;;;11.90;8.30;;;;;;;18.18;53.45;94561.41;5083554;28;20424;-77
2022/04/27 05:51:42;;;;;;;8.80;7.53;;;;;;;18.32;53.11;94560.00;5087882;28;20554;-77
2022/04/27 05:54:07;;;;;;;9.33;8.30;;;;;;;18.50;53.02;94549.09;5085607;28;20340;-77
2022/04/27 05:56:33;;;;;;;8.70;7.97;;;;;;;18.98;51.02;94553.94;5086424;28;20450;-77
2022/04/27 05:58:59;;;;;;;10.67;8.60;;;;;;;18.82;51.98;94556.41;5072184;28;20194;-77
2022/04/27 06:01:24;;;;;;;10.37;8.43;;;;;;;19.01;51.93;94556.06;5075204;28;20170;-76
2022/04/27 06:03:50;;;;;;;10.43;9.40;;;;;;;18.94;51.50;94550.19;5067838;28;20198;-77
2022/04/27 06:06:15;;;;;;;10.50;9.40;;;;;;;19.09;51.42;94553.00;5084747;28;20174;-77
2022/04/27 06:08:41;;;;;;;12.37;9.70;;;;;;;18.41;53.10;94563.81;5085966;28;20205;-77
2022/04/27 06:11:07;;;;;;;10.73;9.63;;;;;;;18.94;51.53;94558.94;5079360;28;20207;-77
2022/04/27 06:13:32;;;;;;;10.80;9.80;;;;;;;18.73;52.56;94555.22;5076108;28;20197;-77
2022/04/27 06:15:58;;;;;;;12.67;10.30;;;;;;;18.97;51.45;94554.97;5081305;28;20183;-76
2022/04/27 06:18:23;;;;;;;14.30;9.63;;;;;;;18.98;50.79;94559.22;5072766;28;20185;-77
2022/04/27 06:20:52;;;;;;;12.77;10.10;;;;;;;19.13;51.20;94559.38;5067360;28;20176;-77
2022/04/27 06:23:17;;;;;;;13.20;10.63;;;;;;;19.09;51.15;94558.28;5076416;28;20174;-77
2022/04/27 06:25:47;;;;;;;11.50;9.70;;;;;;;20.02;48.61;94558.06;5074598;28;20420;-77
2022/04/27 06:28:13;;;;;;;11.23;9.30;;;;;;;19.95;48.84;94560.13;5076817;28;20235;-76
2022/04/27 06:30:38;;;;;;;11.40;9.20;;;;;;;20.22;48.42;94551.25;5069892;28;20421;-77
2022/04/27 06:33:04;;;;;;;18.60;10.80;;;;;;;19.82;48.81;94568.53;5067929;28;20178;-77
2022/04/27 06:35:29;;;;;;;10.60;9.80;;;;;;;19.92;49.43;94559.81;5086717;28;20177;-78
2022/04/27 06:37:55;;;;;;;12.50;10.60;;;;;;;18.90;51.17;94561.28;5073607;28;20197;-78
2022/04/27 06:40:20;;;;;;;10.83;9.80;;;;;;;19.50;50.48;94556.00;5086363;28;20212;-77
2022/04/27 06:42:46;;;;;;;11.50;10.20;;;;;;;19.91;49.19;94564.34;5080489;28;20182;-77
2022/04/27 06:45:11;;;;;;;11.10;10.00;;;;;;;20.24;48.47;94557.94;5067088;28;20186;-77
2022/04/27 06:47:37;;;;;;;14.97;9.43;;;;;;;19.26;50.80;94560.84;5067439;28;20217;-76
2022/04/27 06:50:03;;;;;;;11.63;10.53;;;;;;;20.43;48.44;94558.31;5084549;28;20182;-77
2022/04/27 06:52:28;;;;;;;12.30;10.20;;;;;;;20.72;47.69;94554.47;5081579;28;20171;-77
2022/04/27 06:54:54;;;;;;;18.57;11.70;;;;;;;20.02;48.63;94558.06;5066742;28;20469;-77
2022/04/27 06:57:19;;;;;;;14.93;11.40;;;;;;;20.41;47.99;94552.44;5078780;28;20179;-77
2022/04/27 06:59:45;;;;;;;12.23;11.03;;;;;;;20.28;47.88;94550.25;5066526;28;20225;-77
2022/04/27 07:02:13;;;;;;;14.20;11.30;;;;;;;20.71;47.41;94553.66;5072863;28;20225;-77
2022/04/27 07:04:40;;;;;;;11.40;10.40;;;;;;;20.26;48.20;94549.69;5076112;28;20697;-77
2022/04/27 07:07:06;;;;;;;15.93;12.20;;;;;;;21.01;46.75;94549.50;5085704;28;20451;-77
2022/04/27 07:09:32;;;;;;;12.77;11.23;;;;;;;20.97;46.79;94546.56;5077049;28;20420;-78
2022/04/27 07:11:58;;;;;;;17.70;12.30;;;;;;;21.01;46.86;94547.66;5079877;28;20192;-77
2022/04/27 07:14:24;;;;;;;11.40;10.27;;;;;;;20.21;48.71;94550.47;5074772;28;20178;-77
2022/04/27 07:16:49;;;;;;;13.77;11.03;;;;;;;21.18;46.95;94552.75;5085202;28;20416;-77
2022/04/27 07:19:15;;;;;;;17.13;9.83;;;;;;;21.46;45.96;94550.69;5080592;28;20447;-77
2022/04/27 07:21:41;;;;;;;11.83;10.60;;;;;;;21.31;46.22;94548.78;5081092;28;20181;-77
2022/04/27 07:24:07;;;;;;;13.10;11.07;;;;;;;21.55;45.99;94561.59;5071527;28;20186;-77
2022/04/27 07:26:33;;;;;;;12.60;10.20;;;;;;;21.92;45.07;94547.25;5087083;28;20201;-77
2022/04/27 07:28:59;;;;;;;11.50;10.10;;;;;;;21.82;44.88;94553.38;5083069;28;20424;-77
2022/04/27 07:31:25;;;;;;;12.03;10.83;;;;;;;22.01;44.62;94548.31;5085445;28;20990;-77
2022/04/27 07:33:51;;;;;;;12.03;10.73;;;;;;;22.40;44.28;94545.88;5072325;28;20440;-77
2022/04/27 07:36:17;;;;;;;13.70;10.40;;;;;;;21.25;46.21;94550.63;5082741;28;20481;-77
2022/04/27 07:38:42;;;;;;;14.03;10.30;;;;;;;21.58;45.32;94545.91;5076145;28;20179;-76
2022/04/27 07:41:08;;;;;;;15.43;11.47;;;;;;;21.99;44.41;94550.44;5068194;28;20656;-77
2022/04/27 07:43:34;;;;;;;18.50;11.00;;;;;;;21.63;45.66;94551.25;5076382;28;20180;-77
2022/04/27 07:46:00;;;;;;;10.67;9.67;;;;;;;22.28;44.19;94547.22;5078276;28;20186;-77
2022/04/27 07:48:32;;;;;;;10.40;9.20;;;;;;;22.54;43.06;94554.09;5068622;28;20492;-77
2022/04/27 07:51:00;;;;;;;10.17;9.20;;;;;;;22.41;43.17;94547.44;5070126;28;20427;-77
2022/04/27 07:53:26;;;;;;;13.00;9.47;;;;;;;22.50;42.98;94550.38;5075611;28;20425;-76
2022/04/27 07:55:52;;;;;;;14.53;9.10;;;;;;;21.95;44.04;94544.84;5076474;28;20472;-77
2022/04/27 07:58:17;;;;;;;11.10;9.60;;;;;;;22.56;43.28;94540.47;5077336;28;20420;-76
2022/04/27 08:00:42;;;;;;;10.53;9.53;;;;;;;23.11;42.30;94540.53;5071985;28;20167;-77
2022/04/27 08:03:08;;;;;;;11.37;9.80;;;;;;;23.35;41.01;94540.63;5076704;28;20177;-77
2022/04/27 08:05:33;;;;;;;11.57;9.17;;;;;;;23.24;41.36;94539.09;5071395;28;20687;-77
2022/04/27 08:07:59;;;;;;;10.57;9.77;;;;;;;22.95;42.00;94540.56;5074764;28;20202;-76
2022/04/27 08:10:24;;;;;;;10.93;9.83;;;;;;;23.63;40.32;94543.66;5071180;28;20204;-77
2022/04/27 08:12:50;;;;;;;15.50;10.20;;;;;;;23.32;41.05;94543.88;5075365;28;20224;-77
2022/04/27 08:15:20;;;;;;;11.33;9.50;;;;;;;23.15;41.47;94539.69;5065812;28;20171;-77
2022/04/27 08:18:09;;;;;;;9.37;8.53;;;;;;;23.58;40.51;94541.81;5074341;28;20321;-77
2022/04/27 08:23:22;;;;;;;10.33;8.13;;;;;;;23.30;41.26;94538.03;5074612;28;20446;-77
2022/04/27 08:25:49;;;;;;;9.50;7.73;;;;;;;23.29;40.90;94528.41;5072602;28;21064;-77
2022/04/27 08:28:16;;;;;;;9.30;7.00;;;;;;;23.53;40.09;94534.66;5073122;28;20463;-77
2022/04/27 08:30:44;;;;;;;9.40;8.50;;;;;;;23.54;40.09;94530.91;5071942;28;20413;-76
2022/04/27 08:33:10;;;;;;;8.40;7.70;;;;;;;24.34;38.43;94524.34;5077503;28;20982;-77
2022/04/27 08:35:37;;;;;;;10.00;7.30;;;;;;;25.02;37.43;94519.78;5105390;28;20415;-77
2022/04/27 08:38:04;;;;;;;11.07;7.83;;;;;;;25.29;37.08;94521.09;5074036;28;20488;-78
2022/04/27 08:40:30;;;;;;;8.40;7.60;;;;;;;24.80;37.65;94519.56;5074412;28;20441;-77
2022/04/27 08:42:57;;;;;;;13.13;7.80;;;;;;;24.12;39.13;94516.00;5070278;28;20960;-77
2022/04/27 08:45:23;;;;;;;10.20;6.87;;;;;;;25.30;37.07;94515.41;5075935;28;20413;-77
2022/04/27 08:47:50;;;;;;;9.93;7.10;;;;;;;24.87;37.21;94512.78;5069683;28;20461;-76
2022/04/27 08:50:18;;;;;;;10.60;6.00;;;;;;;25.12;35.94;94506.28;5074391;28;20171;-77
2022/04/27 08:52:44;;;;;;;6.53;5.80;;;;;;;24.58;36.95;94510.19;5076398;28;20449;-78
2022/04/27 08:55:11;;;;;;;8.30;5.63;;;;;;;25.14;35.38;94501.44;5075204;28;20528;-77
2022/04/27 08:57:37;;;;;;;6.00;5.40;;;;;;;25.74;34.62;94504.56;5080701;28;20417;-77
2022/04/27 09:00:05;;;;;;;9.30;5.03;;;;;;;26.23;33.65;94500.53;5072915;28;20480;-77
2022/04/27 09:02:31;;;;;;;5.10;4.60;;;;;;;25.90;33.40;94506.72;5081732;28;20422;-77
2022/04/27 09:05:08;;;;;;;10.37;4.97;;;;;;;25.47;34.07;94501.50;5071189;28;20465;-77
2022/04/27 09:07:44;;;;;;;5.73;5.00;;;;;;;25.75;33.70;94488.19;5065661;28;20194;-77
2022/04/27 09:10:17;;;;;;;6.60;5.53;;;;;;;25.83;33.50;94495.56;5069092;28;20432;-77
2022/04/27 09:12:50;;;;;;;7.57;4.77;;;;;;;25.58;33.64;94491.41;5081149;28;20525;-77
2022/04/27 09:15:19;;;;;;;7.07;4.60;;;;;;;25.62;32.82;94486.28;5093263;28;20414;-77
2022/04/27 09:23:22;;;;;;;5.33;4.83;;;;;;;26.86;32.48;94477.56;5087209;28;20440;-77
2022/04/27 09:25:49;;;;;;;5.93;5.40;;;;;;;26.91;32.17;94480.16;5067468;28;20407;-77
2022/04/27 09:28:14;;;;;;;7.50;4.93;;;;;;;26.75;32.57;94476.19;5076882;28;20467;-77
2022/04/27 09:30:43;;;;;;;5.63;5.10;;;;;;;26.91;32.24;94476.69;5067458;28;21007;-76
2022/04/27 09:33:09;;;;;;;5.53;4.67;;;;;;;26.24;33.22;94470.72;5068388;28;20985;-77
2022/04/27 09:35:36;;;;;;;6.90;4.60;;;;;;;26.91;32.52;94469.41;5084541;28;20423;-77
2022/04/27 09:38:18;;;;;;;9.23;4.50;;;;;;;27.43;31.32;94467.19;5073416;28;20242;-76
2022/04/27 09:40:50;;;;;;;7.13;5.03;;;;;;;28.27;30.61;94470.22;5085746;28;20487;-78
2022/04/27 09:43:16;;;;;;;5.73;4.30;;;;;;;28.58;30.03;94472.88;5088148;28;20421;-77
2022/04/27 09:45:45;;;;;;;5.37;4.63;;;;;;;28.07;30.20;94468.06;5085896;28;20412;-77
2022/04/27 09:48:19;;;;;;;6.80;4.40;;;;;;;28.00;30.28;94466.63;5083770;28;20471;-77
2022/04/27 09:50:58;;;;;;;6.90;4.77;;;;;;;27.62;30.59;94461.63;5069377;28;20425;-77
2022/04/27 09:53:24;;;;;;;4.30;3.90;;;;;;;27.59;30.06;94456.06;5075954;28;20477;-77
2022/04/27 09:55:53;;;;;;;10.63;4.73;;;;;;;27.26;30.68;94456.28;5086657;28;20464;-77
2022/04/27 09:58:19;;;;;;;6.47;4.70;;;;;;;26.99;31.69;94452.56;5087424;28;20435;-77
2022/04/27 10:00:45;;;;;;;5.87;4.43;;;;;;;27.06;31.50;94461.00;5078118;28;20407;-77
2022/04/27 10:03:18;;;;;;;8.53;5.43;;;;;;;26.13;32.63;94455.13;5081526;28;20177;-77
2022/04/27 10:05:45;;;;;;;4.73;4.33;;;;;;;27.77;30.83;94451.56;5067005;28;20405;-77
2022/04/27 10:08:11;;;;;;;10.23;4.70;;;;;;;28.00;29.79;94453.16;5069202;28;20476;-77
2022/04/27 10:10:41;;;;;;;8.60;3.87;;;;;;;26.84;31.45;94448.34;5082959;28;20416;-77
2022/04/27 10:13:12;;;;;;;7.07;5.07;;;;;;;27.11;30.82;94445.84;5083343;28;20431;-77
2022/04/27 10:15:48;;;;;;;4.77;4.47;;;;;;;27.00;31.41;94446.09;5077938;28;20413;-77
2022/04/27 10:18:18;;;;;;;6.00;4.43;;;;;;;27.59;30.23;94453.38;5069216;28;20417;-77
2022/04/27 10:20:44;;;;;;;8.80;4.80;;;;;;;26.93;30.82;94440.34;5077013;28;20459;-78
2022/04/27 10:23:15;;;;;;;6.73;4.77;;;;;;;26.77;31.00;94439.91;5074729;28;20425;-77
2022/04/27 10:25:41;;;;;;;4.30;4.00;;;;;;;26.07;31.83;94438.34;5075221;28;20413;-77
2022/04/27 10:28:20;;;;;;;6.77;4.23;;;;;;;26.93;31.25;94445.72;5106799;28;20555;-77
2022/04/27 10:30:45;;;;;;;6.37;4.10;;;;;;;26.73;30.79;94441.59;5076281;28;20405;-77
2022/04/27 10:33:10;;;;;;;6.20;4.10;;;;;;;26.14;31.26;94441.38;5084583;28;20443;-76
2022/04/27 10:35:36;;;;;;;6.60;4.37;;;;;;;25.59;32.11;94430.56;5074597;28;20240;-76
2022/04/27 10:38:05;;;;;;;5.17;4.80;;;;;;;26.18;31.41;94426.31;5082313;28;20180;-77
2022/04/27 10:40:33;;;;;;;5.83;5.00;;;;;;;25.88;31.68;94423.09;5082135;28;20505;-77
2022/04/27 10:43:08;;;;;;;5.33;4.70;;;;;;;25.75;32.57;94423.84;5072119;28;20425;-77
2022/04/27 10:45:35;;;;;;;10.23;5.30;;;;;;;25.65;32.70;94424.00;5071488;28;20404;-77
2022/04/27 10:48:03;;;;;;;7.90;4.07;;;;;;;25.38;32.80;94419.41;5080855;28;20468;-77
2022/04/27 10:50:30;;;;;;;5.73;3.90;;;;;;;25.75;32.26;94412.34;5077177;28;20412;-77
2022/04/27 10:52:58;;;;;;;6.03;5.00;;;;;;;26.07;32.24;94414.19;5075908;28;20852;-77
2022/04/27 10:55:38;;;;;;;6.63;4.77;;;;;;;26.38;31.48;94400.94;5068788;28;20494;-77
2022/04/27 10:58:13;;;;;;;4.60;3.67;;;;;;;27.15;30.26;94403.84;5078304;28;20444;-77
2022/04/27 11:01:18;;;;;;;6.17;4.20;;;;;;;27.49;29.98;94397.97;5075799;28;20434;-76
2022/04/27 11:03:52;;;;;;;11.10;5.30;;;;;;;27.80;29.88;94389.88;5068754;28;20432;-77
2022/04/27 11:06:19;;;;;;;5.27;3.63;;;;;;;28.17;29.10;94389.72;5074682;28;20413;-77
2022/04/27 11:09:40;;;;;;;3.93;3.50;;;;;;;28.16;29.44;94383.56;5072797;28;20431;-76
2022/04/27 11:12:08;;;;;;;7.30;3.73;;;;;;;27.94;29.46;94380.94;5037476;28;20419;-76
2022/04/27 11:14:34;;;;;;;6.93;4.60;;;;;;;27.44;29.60;94379.28;5076572;28;20429;-77
2022/04/27 11:17:00;;;;;;;5.27;4.20;;;;;;;26.61;30.75;94379.56;5066343;28;20412;-77
2022/04/27 11:19:40;;;;;;;8.20;4.63;;;;;;;26.94;30.64;94379.34;5065588;28;20441;-77
2022/04/27 11:22:14;;;;;;;8.23;3.70;;;;;;;27.39;29.73;94366.72;5079171;28;20413;-77
2022/04/27 11:24:42;;;;;;;4.10;3.23;;;;;;;28.14;28.87;94363.47;5079765;28;20435;-77
2022/04/27 11:27:08;;;;;;;3.87;3.47;;;;;;;28.57;28.71;94370.84;5080642;28;20451;-77
2022/04/27 11:29:35;;;;;;;4.00;3.23;;;;;;;28.67;28.38;94362.47;5086158;28;20439;-76
2022/04/27 11:32:05;;;;;;;5.17;3.27;;;;;;;28.15;27.34;94360.47;5080427;28;20420;-77
2022/04/27 11:34:31;;;;;;;4.10;3.00;;;;;;;28.43;27.93;94360.19;5080388;28;20417;-77
2022/04/27 11:36:57;;;;;;;4.10;2.93;;;;;;;27.76;28.25;94358.56;5078246;28;20419;-77
2022/04/27 11:39:25;;;;;;;5.77;2.80;;;;;;;27.58;28.88;94354.97;5065470;28;20734;-77
2022/04/27 11:41:58;;;;;;;5.13;3.50;;;;;;;27.45;28.33;94353.97;5073344;28;20181;-77
2022/04/27 11:44:24;;;;;;;7.20;3.33;;;;;;;27.09;29.15;94344.09;5077283;28;20425;-76
2022/04/27 11:46:50;;;;;;;4.20;3.90;;;;;;;26.76;30.99;94352.38;5071066;28;20513;-77
2022/04/27 11:49:16;;;;;;;6.73;4.10;;;;;;;27.41;29.62;94353.81;5073360;28;20437;-77
2022/04/27 11:51:46;;;;;;;4.50;3.40;;;;;;;27.52;28.95;94342.78;5078415;28;20200;-77